Cape Texel — V7RC4 — position and weather

sailwx.info

Track history (hours):
 
Tides and Currents Weather Stations Pressure Air Temp Water Temp Dewpoint Dewpoint Depression Visibility Wind Speed Wind Dir Waves Ship Positions

Cape Texel

Last reported at 2016-Feb-10 12:33 UTC. Time now 2016-Feb-11 15:09 UTC.
Position N 18°27' W 066°07'.

Length 228 m; draft 7.8 m.

Type: Ship (hazmat cat A). MMSI: 538090383.

Date/timePositionNaut miles runAvg speedWind from/ knotsBaromVisibWave heightAir tempDewpointWater temp
2016-Feb-10 12:33N 18°27' W 066°07'5 4.9
2016-Feb-10 11:32N 18°32' W 066°08'3 1.5
2016-Feb-10 09:32N 18°35' W 066°09'1 1.2
2016-Feb-10 08:19N 18°34' W 066°10'1 1.2
2016-Feb-10 07:32N 18°33' W 066°11'1 1.0
2016-Feb-10 06:33N 18°34' W 066°10'1 0.9
2016-Feb-10 05:11N 18°35' W 066°09'3 2.7
2016-Feb-10 04:10N 18°32' W 066°09'1 1.2
2016-Feb-10 03:33N 18°33' W 066°09'1 0.1
2016-Feb-09 12:33N 18°33' W 066°08'0 0.5
2016-Feb-09 11:33N 18°32' W 066°08'  
Track history (hours):
 
Tides and Currents Weather Stations Pressure Air Temp Water Temp Dewpoint Dewpoint Depression Visibility Wind Speed Wind Dir Waves Ship Positions

Cape Texel

Last reported at 2016-Feb-10 12:33 UTC. Time now 2016-Feb-11 15:09 UTC.
Position N 18°27' W 066°07'.

Length 228 m; draft 7.8 m.

Type: Ship (hazmat cat A). MMSI: 538090383.

Date/timePositionNaut miles runAvg speedWind from/ knotsBaromVisibWave heightAir tempDewpointWater temp
2016-Feb-10 12:33N 18°27' W 066°07'5 4.9
2016-Feb-10 11:32N 18°32' W 066°08'3 1.5
2016-Feb-10 09:32N 18°35' W 066°09'1 1.2
2016-Feb-10 08:19N 18°34' W 066°10'1 1.2
2016-Feb-10 07:32N 18°33' W 066°11'1 1.0
2016-Feb-10 06:33N 18°34' W 066°10'1 0.9
2016-Feb-10 05:11N 18°35' W 066°09'3 2.7
2016-Feb-10 04:10N 18°32' W 066°09'1 1.2
2016-Feb-10 03:33N 18°33' W 066°09'1 0.1
2016-Feb-09 12:33N 18°33' W 066°08'0 0.5
2016-Feb-09 11:33N 18°32' W 066°08'  

Dump ship's entire track history